createdAt,value
2022-11-06T00:01:43.452Z,0.97
2022-11-06T00:04:11.295Z,1.07
2022-11-06T00:06:50.088Z,1.70
2022-11-06T00:09:20.354Z,1.70
2022-11-06T00:11:49.745Z,1.20
2022-11-06T00:14:19.252Z,1.43
2022-11-06T00:16:48.131Z,1.57
2022-11-06T00:19:16.598Z,1.40
2022-11-06T00:21:45.179Z,1.10
2022-11-06T00:24:14.771Z,2.10
2022-11-06T00:26:43.456Z,1.07
2022-11-06T00:29:14.693Z,1.30
2022-11-06T00:34:12.129Z,1.50
2022-11-06T00:36:39.989Z,1.67
2022-11-06T00:39:08.032Z,1.57
2022-11-06T00:41:35.800Z,2.03
2022-11-06T00:44:04.969Z,1.37
2022-11-06T00:46:32.772Z,1.67
2022-11-06T00:49:01.879Z,1.50
2022-11-06T00:51:31.719Z,1.27
2022-11-06T00:54:00.905Z,1.50
2022-11-06T00:56:29.920Z,1.83
2022-11-06T00:59:00.310Z,0.87
2022-11-06T01:01:30.737Z,1.52
2022-11-06T01:04:02.170Z,1.45
2022-11-06T01:06:32.963Z,1.40
2022-11-06T01:09:01.566Z,1.65
2022-11-06T01:11:52.371Z,1.90
2022-11-06T01:14:22.093Z,1.85
2022-11-06T01:16:50.202Z,2.27
2022-11-06T01:19:21.457Z,2.93
2022-11-06T01:24:19.377Z,2.80
2022-11-06T01:27:12.113Z,3.63
2022-11-06T01:29:35.842Z,2.93
2022-11-06T01:32:03.684Z,2.00
2022-11-06T01:34:32.908Z,2.10
2022-11-06T01:37:00.727Z,2.83
2022-11-06T01:39:28.643Z,2.40
2022-11-06T01:41:56.756Z,1.90
2022-11-06T01:45:17.305Z,1.77
2022-11-06T01:47:45.432Z,1.27
2022-11-06T01:50:16.710Z,1.67
2022-11-06T01:55:18.877Z,1.53
2022-11-06T01:57:48.623Z,1.60
2022-11-06T02:00:17.372Z,1.40
2022-11-06T02:02:45.443Z,2.17
2022-11-06T02:05:14.688Z,1.63
2022-11-06T02:07:44.448Z,1.70
2022-11-06T02:10:12.402Z,2.27
2022-11-06T02:13:02.045Z,1.60
2022-11-06T02:15:39.345Z,1.77
2022-11-06T02:18:22.837Z,2.27
2022-11-06T02:21:09.590Z,1.57
2022-11-06T02:24:07.859Z,1.23
2022-11-06T02:27:01.747Z,1.30
2022-11-06T02:29:34.588Z,1.20
2022-11-06T02:32:08.569Z,1.80
2022-11-06T02:34:37.937Z,1.20
2022-11-06T02:37:12.019Z,0.93
2022-11-06T02:39:42.576Z,1.00
2022-11-06T02:42:15.981Z,1.15
2022-11-06T02:44:45.368Z,1.23
2022-11-06T02:47:15.824Z,1.20
2022-11-06T02:49:48.189Z,1.05
2022-11-06T02:52:20.542Z,1.00
2022-11-06T02:54:55.992Z,1.03
2022-11-06T02:57:27.706Z,1.40
2022-11-06T03:00:02.386Z,1.60
2022-11-06T03:02:34.596Z,1.37
2022-11-06T03:05:06.901Z,0.90
2022-11-06T03:07:38.642Z,0.70
2022-11-06T03:10:08.539Z,1.63
2022-11-06T03:12:50.824Z,1.10
2022-11-06T03:15:25.990Z,0.90
2022-11-06T03:18:01.985Z,0.97
2022-11-06T03:20:36.242Z,1.33
2022-11-06T03:23:10.275Z,1.40
2022-11-06T03:25:47.314Z,1.37
2022-11-06T03:28:23.340Z,0.87
2022-11-06T03:30:55.657Z,1.00
2022-11-06T03:33:31.510Z,0.73
2022-11-06T03:36:04.109Z,1.17
2022-11-06T03:38:38.331Z,0.67
2022-11-06T03:41:14.150Z,0.77
2022-11-06T03:43:48.677Z,1.13
2022-11-06T03:46:20.742Z,1.10
2022-11-06T03:48:52.268Z,1.03
2022-11-06T03:51:23.333Z,1.30
2022-11-06T03:53:54.575Z,1.17
2022-11-06T03:58:56.816Z,1.17
2022-11-06T04:01:29.537Z,1.03
2022-11-06T04:04:00.926Z,1.03
2022-11-06T04:06:34.465Z,1.70
2022-11-06T04:09:24.207Z,1.67
2022-11-06T04:12:10.501Z,1.27
2022-11-06T04:14:43.096Z,1.17
2022-11-06T04:17:14.204Z,1.30
2022-11-06T04:19:47.796Z,1.17
2022-11-06T04:22:30.839Z,1.40
2022-11-06T04:25:27.306Z,1.63
2022-11-06T04:28:07.492Z,1.37
2022-11-06T04:30:44.597Z,1.13
2022-11-06T04:33:19.796Z,1.00
2022-11-06T04:36:00.056Z,1.13
2022-11-06T04:38:35.937Z,1.20
2022-11-06T04:41:12.610Z,1.20
2022-11-06T04:43:45.310Z,1.07
2022-11-06T04:46:20.757Z,1.23
2022-11-06T04:48:49.435Z,1.00
2022-11-06T04:51:20.290Z,1.23
2022-11-06T04:53:50.629Z,2.15
2022-11-06T04:56:25.808Z,1.27
2022-11-06T04:58:53.786Z,1.00
2022-11-06T05:01:23.314Z,1.80
2022-11-06T05:03:51.225Z,1.30
2022-11-06T05:06:19.260Z,1.23
2022-11-06T05:08:47.125Z,1.37
2022-11-06T05:11:15.274Z,0.93
2022-11-06T05:13:43.048Z,1.60
2022-11-06T05:16:10.814Z,0.97
2022-11-06T05:18:39.931Z,1.03
2022-11-06T05:21:25.335Z,1.13
2022-11-06T05:23:53.244Z,1.20
2022-11-06T05:26:21.080Z,1.30
2022-11-06T05:28:49.307Z,1.00
2022-11-06T05:31:17.299Z,1.07
2022-11-06T05:33:46.412Z,1.07
2022-11-06T05:36:14.184Z,1.30
2022-11-06T05:38:41.975Z,1.40
2022-11-06T05:41:09.816Z,1.23
2022-11-06T05:43:37.600Z,1.17
2022-11-06T05:46:07.122Z,1.53
2022-11-06T05:48:42.991Z,1.40
2022-11-06T05:51:12.555Z,1.37
2022-11-06T05:53:40.356Z,1.50
2022-11-06T05:56:09.203Z,1.50
2022-11-06T05:58:37.009Z,1.43
2022-11-06T06:01:05.159Z,0.97
2022-11-06T06:03:33.000Z,1.17
2022-11-06T06:06:01.186Z,2.00
2022-11-06T06:08:30.329Z,2.17
2022-11-06T06:10:58.100Z,1.10
2022-11-06T06:13:25.871Z,0.90
2022-11-06T06:15:53.649Z,1.30
2022-11-06T06:18:21.433Z,1.40
2022-11-06T06:20:49.205Z,1.63
2022-11-06T06:23:16.993Z,1.67
2022-11-06T06:25:46.173Z,1.27
2022-11-06T06:28:14.299Z,1.70
2022-11-06T06:30:42.534Z,1.67
2022-11-06T06:33:10.441Z,1.67
2022-11-06T06:35:38.221Z,1.30
2022-11-06T06:38:06.032Z,0.90
2022-11-06T06:40:33.811Z,0.97
2022-11-06T06:43:02.972Z,1.80
2022-11-06T06:45:30.763Z,1.20
2022-11-06T06:48:03.532Z,1.40
2022-11-06T06:50:31.328Z,1.50
2022-11-06T06:52:59.603Z,1.30
2022-11-06T06:55:27.628Z,1.47
2022-11-06T06:57:59.065Z,1.27
2022-11-06T07:00:29.154Z,1.70
2022-11-06T07:02:57.048Z,1.47
2022-11-06T07:05:25.279Z,1.67
2022-11-06T07:07:53.052Z,1.27
2022-11-06T07:10:21.086Z,1.30
2022-11-06T07:12:48.905Z,1.33
2022-11-06T07:15:16.796Z,1.20
2022-11-06T07:17:45.969Z,1.30
2022-11-06T07:20:14.408Z,1.70
2022-11-06T07:22:42.217Z,1.50
2022-11-06T07:25:10.512Z,1.50
2022-11-06T07:27:38.273Z,1.93
2022-11-06T07:30:07.044Z,1.50
2022-11-06T07:32:34.851Z,1.43
2022-11-06T07:35:05.089Z,1.07
2022-11-06T07:37:33.471Z,0.97
2022-11-06T07:40:01.679Z,1.80
2022-11-06T07:42:30.075Z,1.90
2022-11-06T07:44:58.178Z,1.37
2022-11-06T07:47:27.585Z,1.27
2022-11-06T07:49:56.060Z,0.97
2022-11-06T07:52:25.527Z,1.30
2022-11-06T07:54:53.639Z,1.80
2022-11-06T07:57:21.772Z,1.20
2022-11-06T07:59:49.878Z,1.27
2022-11-06T08:02:18.320Z,1.37
2022-11-06T08:04:46.451Z,1.57
2022-11-06T08:07:14.544Z,2.03
2022-11-06T08:09:44.039Z,1.00
2022-11-06T08:12:14.474Z,1.77
2022-11-06T08:14:42.776Z,1.40
2022-11-06T08:17:10.863Z,1.37
2022-11-06T08:19:39.044Z,1.57
2022-11-06T08:22:08.931Z,1.50
2022-11-06T08:24:37.178Z,1.50
2022-11-06T08:27:06.725Z,1.50
2022-11-06T08:29:38.363Z,1.50
2022-11-06T08:32:09.446Z,1.50
2022-11-06T08:34:37.651Z,2.27
2022-11-06T08:37:05.798Z,1.63
2022-11-06T08:39:33.910Z,1.57
2022-11-06T08:42:02.057Z,1.20
2022-11-06T08:44:31.586Z,1.67
2022-11-06T08:46:59.741Z,1.63
2022-11-06T08:49:27.920Z,1.13
2022-11-06T08:51:56.067Z,1.30
2022-11-06T08:54:24.295Z,1.77
2022-11-06T08:56:52.489Z,1.57
2022-11-06T08:59:20.633Z,1.97
2022-11-06T09:01:50.265Z,1.77
2022-11-06T09:04:18.467Z,1.20
2022-11-06T09:06:46.603Z,1.53
2022-11-06T09:09:14.696Z,1.10
2022-11-06T09:11:42.853Z,1.00
2022-11-06T09:14:10.993Z,1.50
2022-11-06T09:16:39.140Z,1.00
2022-11-06T09:19:08.759Z,1.20
2022-11-06T09:21:36.891Z,1.07
2022-11-06T09:24:05.185Z,1.47
2022-11-06T09:26:33.370Z,1.43
2022-11-06T09:29:01.553Z,1.47
2022-11-06T09:31:29.668Z,1.10
2022-11-06T09:33:57.824Z,1.50
2022-11-06T09:36:27.373Z,1.37
2022-11-06T09:38:55.566Z,1.57
2022-11-06T09:41:25.296Z,1.53
2022-11-06T09:44:05.019Z,1.20
2022-11-06T09:46:34.940Z,1.63
2022-11-06T09:49:06.586Z,1.50
2022-11-06T09:51:38.704Z,1.30
2022-11-06T09:54:09.322Z,0.97
2022-11-06T09:56:40.001Z,1.05
2022-11-06T09:59:12.114Z,1.20
2022-11-06T10:01:43.683Z,0.83
2022-11-06T10:04:18.556Z,0.90
2022-11-06T10:06:49.566Z,0.83
2022-11-06T10:09:18.619Z,1.38
2022-11-06T10:11:51.897Z,2.03
2022-11-06T10:14:26.730Z,1.03
2022-11-06T10:17:01.121Z,1.40
2022-11-06T10:19:35.041Z,1.07
2022-11-06T10:22:09.996Z,0.90
2022-11-06T10:24:43.083Z,1.23
2022-11-06T10:27:15.897Z,1.07
2022-11-06T10:29:54.186Z,1.47
2022-11-06T10:32:30.359Z,0.93
2022-11-06T10:35:02.000Z,0.97
2022-11-06T10:37:34.307Z,1.10
2022-11-06T10:40:05.692Z,1.10
2022-11-06T10:42:38.320Z,0.70
2022-11-06T10:45:08.003Z,1.50
2022-11-06T10:47:39.857Z,1.20
2022-11-06T10:50:12.196Z,1.20
2022-11-06T10:52:48.920Z,0.97
2022-11-06T10:55:36.103Z,1.17
2022-11-06T10:58:05.026Z,1.73
2022-11-06T11:00:34.467Z,0.80
2022-11-06T11:03:03.626Z,1.47
2022-11-06T11:05:36.273Z,0.77
2022-11-06T11:08:06.033Z,1.17
2022-11-06T11:10:36.573Z,1.00
2022-11-06T11:13:08.806Z,0.55
2022-11-06T11:15:40.958Z,0.83
2022-11-06T11:18:10.457Z,1.10
2022-11-06T11:20:39.327Z,1.00
2022-11-06T11:23:19.243Z,1.07
2022-11-06T11:25:48.940Z,1.07
2022-11-06T11:28:32.067Z,1.50
2022-11-06T11:31:03.973Z,1.00
2022-11-06T11:33:32.176Z,1.03
2022-11-06T11:36:00.346Z,0.67
2022-11-06T11:38:29.948Z,0.80
2022-11-06T11:41:07.316Z,0.67
2022-11-06T11:43:35.447Z,1.00
2022-11-06T11:46:18.428Z,0.73
2022-11-06T11:48:47.563Z,0.60
2022-11-06T11:51:20.908Z,0.80
2022-11-06T11:53:50.483Z,0.90
2022-11-06T11:56:42.527Z,0.60
2022-11-06T11:59:08.719Z,0.70
2022-11-06T12:01:41.462Z,0.73
2022-11-06T12:04:11.932Z,0.77
2022-11-06T12:06:50.802Z,0.47
2022-11-06T12:09:20.387Z,0.40
2022-11-06T12:11:48.867Z,0.70
2022-11-06T12:14:34.964Z,0.60
2022-11-06T12:17:06.200Z,0.50
2022-11-06T12:22:05.108Z,0.60
2022-11-06T12:24:38.872Z,0.75
2022-11-06T12:27:10.739Z,0.73
2022-11-06T12:29:41.570Z,0.70
2022-11-06T12:32:14.035Z,0.60
2022-11-06T12:34:45.323Z,0.63
2022-11-06T12:39:45.369Z,0.37
2022-11-06T12:42:14.023Z,0.53
2022-11-06T12:44:42.169Z,0.50
2022-11-06T12:47:16.086Z,0.57
2022-11-06T12:49:56.764Z,0.80
2022-11-06T12:52:30.562Z,0.88
2022-11-06T12:55:09.295Z,0.77
2022-11-06T12:57:40.880Z,1.07
2022-11-06T13:00:11.235Z,0.90
2022-11-06T13:02:49.916Z,1.17
2022-11-06T13:05:19.920Z,1.40
2022-11-06T13:08:05.940Z,1.20
2022-11-06T13:10:38.579Z,1.47
2022-11-06T13:13:16.022Z,1.30
2022-11-06T13:15:48.710Z,0.83
2022-11-06T13:18:20.350Z,0.93
2022-11-06T13:20:52.858Z,1.23
2022-11-06T13:23:23.673Z,0.93
2022-11-06T13:25:55.997Z,1.77
2022-11-06T13:28:28.389Z,1.85
2022-11-06T13:30:58.867Z,1.63
2022-11-06T13:33:28.599Z,1.73
2022-11-06T13:35:57.063Z,1.03
2022-11-06T13:38:28.831Z,1.33
2022-11-06T13:41:03.564Z,0.70
2022-11-06T13:43:35.632Z,1.17
2022-11-06T13:46:07.703Z,0.77
2022-11-06T13:48:42.602Z,1.40
2022-11-06T13:51:15.769Z,1.00
2022-11-06T13:53:46.455Z,1.10
2022-11-06T13:56:23.752Z,1.00
2022-11-06T13:59:15.868Z,0.75
2022-11-06T14:01:50.400Z,1.47
2022-11-06T14:04:30.692Z,1.27
2022-11-06T14:07:00.947Z,1.07
2022-11-06T14:09:32.629Z,1.80
2022-11-06T14:12:04.972Z,0.95
2022-11-06T14:14:33.998Z,0.95
2022-11-06T14:17:12.591Z,1.05
2022-11-06T14:19:41.316Z,0.57
2022-11-06T14:22:29.153Z,0.50
2022-11-06T14:25:01.693Z,1.35
2022-11-06T14:27:49.122Z,0.80
2022-11-06T14:31:10.472Z,1.15
2022-11-06T14:33:43.120Z,1.77
2022-11-06T14:36:15.120Z,1.00
2022-11-06T14:38:43.551Z,0.95
2022-11-06T14:41:30.063Z,1.05
2022-11-06T14:43:58.946Z,1.20
2022-11-06T14:46:30.105Z,0.88
2022-11-06T14:51:27.957Z,1.00
2022-11-06T14:53:57.460Z,1.08
2022-11-06T14:56:27.691Z,2.80
2022-11-06T14:58:56.726Z,1.60
2022-11-06T15:01:27.674Z,2.03
2022-11-06T15:03:58.248Z,1.48
2022-11-06T15:06:38.828Z,2.47
2022-11-06T15:09:08.744Z,1.67
2022-11-06T15:11:55.520Z,1.23
2022-11-06T15:14:42.210Z,1.08
2022-11-06T15:17:14.481Z,1.77
2022-11-06T15:19:45.429Z,1.35
2022-11-06T15:22:17.340Z,1.27
2022-11-06T15:24:47.283Z,1.60
2022-11-06T15:27:18.190Z,1.00
2022-11-06T15:29:49.062Z,1.20
2022-11-06T15:32:18.799Z,1.20
2022-11-06T15:34:59.137Z,1.00
2022-11-06T15:37:31.784Z,1.10
2022-11-06T15:40:01.498Z,1.35
2022-11-06T15:42:30.914Z,1.70
2022-11-06T15:45:07.561Z,1.23
2022-11-06T15:47:36.215Z,1.33
2022-11-06T15:50:12.343Z,1.40
2022-11-06T15:52:40.475Z,1.88
2022-11-06T15:55:23.247Z,1.13
2022-11-06T15:57:52.347Z,1.80
2022-11-06T16:00:21.732Z,1.45
2022-11-06T16:02:50.599Z,1.15
2022-11-06T16:05:21.368Z,1.85
2022-11-06T16:07:50.626Z,1.35
2022-11-06T16:10:19.289Z,1.50
2022-11-06T16:12:48.393Z,1.88
2022-11-06T16:15:35.388Z,1.55
2022-11-06T16:18:06.506Z,1.50
2022-11-06T16:20:37.155Z,1.38
2022-11-06T16:23:05.504Z,2.00
2022-11-06T16:25:33.668Z,1.60
2022-11-06T16:28:01.811Z,1.52
2022-11-06T16:30:33.466Z,1.83
2022-11-06T16:33:03.987Z,1.77
2022-11-06T16:35:32.680Z,1.75
2022-11-06T16:38:40.350Z,1.90
2022-11-06T16:41:10.335Z,1.75
2022-11-06T16:43:38.464Z,1.80
2022-11-06T16:46:08.258Z,1.60
2022-11-06T16:48:37.934Z,2.47
2022-11-06T16:51:07.576Z,2.40
2022-11-06T16:53:46.406Z,2.20
2022-11-06T16:56:15.170Z,1.83
2022-11-06T16:58:47.901Z,2.03
2022-11-06T17:01:20.739Z,2.00
2022-11-06T17:03:50.456Z,1.17
2022-11-06T17:06:21.719Z,1.23
2022-11-06T17:11:21.567Z,1.55
2022-11-06T17:13:50.477Z,1.10
2022-11-06T17:16:19.731Z,1.10
2022-11-06T17:18:47.998Z,1.50
2022-11-06T17:21:16.843Z,1.20
2022-11-06T17:23:45.217Z,1.20
2022-11-06T17:26:16.081Z,1.23
2022-11-06T17:28:45.703Z,2.00
2022-11-06T17:31:14.348Z,1.23
2022-11-06T17:33:42.873Z,1.10
2022-11-06T17:36:14.550Z,1.27
2022-11-06T17:38:42.677Z,1.35
2022-11-06T17:41:10.812Z,1.02
2022-11-06T17:43:38.943Z,1.40
2022-11-06T17:46:08.468Z,1.38
2022-11-06T17:48:37.203Z,1.17
2022-11-06T17:51:22.788Z,1.80
2022-11-06T17:53:50.919Z,1.23
2022-11-06T17:56:19.060Z,1.08
2022-11-06T17:58:47.182Z,1.98
2022-11-06T18:01:16.703Z,1.55
2022-11-06T18:03:45.915Z,1.85
2022-11-06T18:06:14.911Z,1.00
2022-11-06T18:08:43.048Z,2.00
2022-11-06T18:11:11.814Z,1.23
2022-11-06T18:13:39.993Z,1.87
2022-11-06T18:16:17.865Z,2.13
2022-11-06T18:18:46.012Z,2.63
2022-11-06T18:21:14.411Z,1.90
2022-11-06T18:23:42.573Z,1.67
2022-11-06T18:26:10.714Z,2.80
2022-11-06T18:28:38.806Z,1.90
2022-11-06T18:31:06.940Z,2.22
2022-11-06T18:33:36.611Z,2.17
2022-11-06T18:36:05.469Z,1.83
2022-11-06T18:38:33.911Z,1.95
2022-11-06T18:41:08.196Z,2.50
2022-11-06T18:43:36.303Z,2.07
2022-11-06T18:46:07.669Z,1.98
2022-11-06T18:48:37.928Z,1.75
2022-11-06T18:51:09.668Z,2.03
2022-11-06T18:53:38.110Z,2.05
2022-11-06T18:56:06.447Z,2.20
2022-11-06T18:58:34.576Z,2.03
2022-11-06T19:01:06.089Z,2.65
2022-11-06T19:03:34.267Z,2.25
2022-11-06T19:06:03.985Z,2.83
2022-11-06T19:08:32.108Z,2.33
2022-11-06T19:11:00.288Z,1.95
2022-11-06T19:13:28.404Z,2.38
2022-11-06T19:15:57.737Z,2.70
2022-11-06T19:18:29.291Z,2.22
2022-11-06T19:20:57.390Z,2.17
2022-11-06T19:23:27.227Z,2.08
2022-11-06T19:26:04.626Z,2.60
2022-11-06T19:28:43.893Z,2.58
2022-11-06T19:31:13.036Z,1.75
2022-11-06T19:33:41.167Z,2.10
2022-11-06T19:36:09.772Z,2.80
2022-11-06T19:38:39.235Z,2.30
2022-11-06T19:41:07.333Z,2.00
2022-11-06T19:43:39.367Z,2.00
2022-11-06T19:46:07.751Z,2.25
2022-11-06T19:48:36.609Z,1.60
2022-11-06T19:51:05.337Z,2.10
2022-11-06T19:53:33.447Z,2.03
2022-11-06T19:56:04.835Z,2.07
2022-11-06T19:58:33.016Z,2.15
2022-11-06T20:01:01.248Z,1.77
2022-11-06T20:03:29.372Z,1.00
2022-11-06T20:05:57.520Z,1.63
2022-11-06T20:08:25.640Z,1.15
2022-11-06T20:10:53.806Z,1.00
2022-11-06T20:13:23.300Z,1.90
2022-11-06T20:15:51.449Z,0.80
2022-11-06T20:18:19.601Z,1.27
2022-11-06T20:20:47.756Z,1.15
2022-11-06T20:23:16.207Z,1.17
2022-11-06T20:25:44.620Z,0.98
2022-11-06T20:28:12.731Z,1.30
2022-11-06T20:30:42.189Z,1.27
2022-11-06T20:33:10.547Z,0.77
2022-11-06T20:35:38.714Z,0.77
2022-11-06T20:38:06.856Z,0.80
2022-11-06T20:40:35.045Z,0.63
2022-11-06T20:43:03.201Z,1.08
2022-11-06T20:45:36.886Z,0.60
2022-11-06T20:48:06.541Z,0.73
2022-11-06T20:50:34.841Z,0.93
2022-11-06T20:53:02.956Z,0.80
2022-11-06T20:55:31.227Z,0.60
2022-11-06T20:57:59.362Z,0.80
2022-11-06T21:00:27.535Z,0.68
2022-11-06T21:03:01.372Z,0.45
2022-11-06T21:05:31.354Z,0.95
2022-11-06T21:07:59.490Z,0.90
2022-11-06T21:10:27.645Z,0.75
2022-11-06T21:12:56.667Z,0.70
2022-11-06T21:15:24.789Z,0.93
2022-11-06T21:17:53.096Z,0.68
2022-11-06T21:20:22.901Z,0.43
2022-11-06T21:22:52.744Z,0.82
2022-11-06T21:25:20.921Z,0.77
2022-11-06T21:27:49.085Z,0.90
2022-11-06T21:30:17.243Z,0.75
2022-11-06T21:32:45.449Z,0.70
2022-11-06T21:35:13.589Z,0.70
2022-11-06T21:37:41.751Z,0.98
2022-11-06T21:40:17.057Z,0.77
2022-11-06T21:42:45.549Z,1.20
2022-11-06T21:45:14.999Z,1.05
2022-11-06T21:47:43.256Z,1.13
2022-11-06T21:50:11.478Z,0.75
2022-11-06T21:52:57.159Z,0.90
2022-11-06T21:55:44.510Z,0.90
2022-11-06T21:58:13.183Z,0.83
2022-11-06T22:00:41.741Z,0.85
2022-11-06T22:03:09.839Z,0.88
2022-11-06T22:05:38.014Z,0.63
2022-11-06T22:08:06.390Z,0.75
2022-11-06T22:10:36.100Z,0.60
2022-11-06T22:13:04.277Z,1.13
2022-11-06T22:15:32.382Z,0.80
2022-11-06T22:18:00.497Z,1.02
2022-11-06T22:20:28.718Z,1.00
2022-11-06T22:22:56.835Z,0.90
2022-11-06T22:25:24.987Z,0.57
2022-11-06T22:27:54.420Z,0.70
2022-11-06T22:30:22.569Z,0.80
2022-11-06T22:32:50.691Z,0.90
2022-11-06T22:35:18.881Z,0.60
2022-11-06T22:37:47.051Z,0.73
2022-11-06T22:40:15.300Z,0.40
2022-11-06T22:42:47.187Z,0.43
2022-11-06T22:45:18.971Z,0.50
2022-11-06T22:47:47.496Z,0.82
2022-11-06T22:50:15.596Z,0.80
2022-11-06T22:52:43.721Z,0.47
2022-11-06T22:55:11.848Z,0.68
2022-11-06T22:57:39.975Z,0.45
2022-11-06T23:00:08.744Z,0.73
2022-11-06T23:02:38.252Z,0.93
2022-11-06T23:05:06.653Z,0.60
2022-11-06T23:07:34.806Z,0.60
2022-11-06T23:10:12.152Z,0.32
2022-11-06T23:12:40.367Z,0.50
2022-11-06T23:15:09.433Z,0.35
2022-11-06T23:17:38.887Z,0.50
2022-11-06T23:20:07.595Z,0.57
2022-11-06T23:22:38.517Z,0.70
2022-11-06T23:25:07.430Z,0.68
2022-11-06T23:27:39.103Z,0.60
2022-11-06T23:30:07.856Z,0.50
2022-11-06T23:32:36.775Z,0.47
2022-11-06T23:35:13.115Z,0.60
2022-11-06T23:37:42.115Z,0.70
2022-11-06T23:40:11.166Z,0.30
2022-11-06T23:42:39.285Z,0.30
2022-11-06T23:45:25.867Z,0.38
2022-11-06T23:47:53.950Z,0.32
2022-11-06T23:50:23.430Z,0.40
2022-11-06T23:52:51.538Z,0.47
2022-11-06T23:55:19.712Z,0.65
2022-11-06T23:57:47.860Z,0.55
